CPX726 Details

Departure: El Nuevo Dorado International Airport (SKBO) at 0510 UTC
Arrival: Miami International Airport (KMIA) at 0815 UTC
Route: UCA UA301 URSUS FLIPR5
Notes:


Current Weather Information
SKBO 230900Z 27004KT 9999 BKN017 11/10 A3025 NOSIG
KMIA 230853Z 00000KT 10SM FEW008 FEW015 26/23 A2996 RMK AO2 SLP146 T02610228 55008